sensor_id;sensor_type;location;lat;lon;timestamp;pressure;altitude;pressure_sealevel;temperature;humidity
76687;BME280;65615;47.378;19.344;2023-04-25T04:26:05;99074.03;;;11.79;100.00
76687;BME280;65615;47.378;19.344;2023-04-25T04:30:10;99074.03;;;11.79;100.00
76687;BME280;65615;47.378;19.344;2023-04-25T04:34:13;99068.91;;;11.23;99.58
76687;BME280;65615;47.378;19.344;2023-04-25T04:38:16;99065.44;;;11.22;100.00
76687;BME280;65615;47.378;19.344;2023-04-25T04:42:19;99069.84;;;11.15;100.00
76687;BME280;65615;47.378;19.344;2023-04-25T04:46:24;99076.72;;;11.09;100.00
76687;BME280;65615;47.378;19.344;2023-04-25T04:50:27;99079.84;;;10.98;100.00
76687;BME280;65615;47.378;19.344;2023-04-25T04:54:31;99080.03;;;10.76;100.00
76687;BME280;65615;47.378;19.344;2023-04-25T04:58:34;99082.81;;;10.68;100.00
76687;BME280;65615;47.378;19.344;2023-04-25T05:02:39;99076.16;;;10.57;100.00
76687;BME280;65615;47.378;19.344;2023-04-25T05:06:43;99083.38;;;10.49;100.00
76687;BME280;65615;47.378;19.344;2023-04-25T05:10:50;99079.22;;;10.40;100.00
76687;BME280;65615;47.378;19.344;2023-04-25T05:14:53;99077.94;;;10.36;100.00
76687;BME280;65615;47.378;19.344;2023-04-25T05:19:01;99078.41;;;10.39;100.00
76687;BME280;65615;47.378;19.344;2023-04-25T05:23:04;99077.22;;;10.42;100.00
76687;BME280;65615;47.378;19.344;2023-04-25T05:27:08;99085.25;;;10.34;100.00
76687;BME280;65615;47.378;19.344;2023-04-25T05:31:11;99086.41;;;10.31;100.00
76687;BME280;65615;47.378;19.344;2023-04-25T05:35:14;99086.50;;;10.38;100.00
76687;BME280;65615;47.378;19.344;2023-04-25T05:39:18;99076.50;;;10.33;100.00
76687;BME280;65615;47.378;19.344;2023-04-25T05:43:22;99087.31;;;10.38;100.00
76687;BME280;65615;47.378;19.344;2023-04-25T05:47:25;99080.59;;;10.36;100.00
76687;BME280;65615;47.378;19.344;2023-04-25T05:51:28;99098.16;;;10.28;100.00
76687;BME280;65615;47.378;19.344;2023-04-25T05:55:32;99104.53;;;10.19;100.00
76687;BME280;65615;47.378;19.344;2023-04-25T05:59:38;99101.44;;;10.31;100.00
76687;BME280;65615;47.378;19.344;2023-04-25T06:04:02;99097.25;;;10.21;100.00
76687;BME280;65615;47.378;19.344;2023-04-25T06:08:08;99097.12;;;10.00;100.00
76687;BME280;65615;47.378;19.344;2023-04-25T06:12:20;99103.69;;;10.04;100.00
76687;BME280;65615;47.378;19.344;2023-04-25T06:16:34;99107.13;;;9.90;100.00
76687;BME280;65615;47.378;19.344;2023-04-25T06:20:37;99115.13;;;9.82;100.00
76687;BME280;65615;47.378;19.344;2023-04-25T06:24:40;99123.19;;;9.66;100.00
76687;BME280;65615;47.378;19.344;2023-04-25T06:28:43;99115.94;;;9.68;100.00
76687;BME280;65615;47.378;19.344;2023-04-25T06:32:47;99125.91;;;9.58;100.00
76687;BME280;65615;47.378;19.344;2023-04-25T06:36:51;99129.91;;;9.54;100.00
76687;BME280;65615;47.378;19.344;2023-04-25T06:40:55;99130.59;;;9.48;100.00
76687;BME280;65615;47.378;19.344;2023-04-25T06:44:59;99126.63;;;9.52;100.00
76687;BME280;65615;47.378;19.344;2023-04-25T06:49:03;99131.19;;;9.58;100.00
76687;BME280;65615;47.378;19.344;2023-04-25T06:53:06;99136.75;;;9.63;100.00
76687;BME280;65615;47.378;19.344;2023-04-25T06:57:12;99130.38;;;9.72;100.00
76687;BME280;65615;47.378;19.344;2023-04-25T07:01:16;99135.97;;;9.77;100.00
76687;BME280;65615;47.378;19.344;2023-04-25T07:05:19;99144.34;;;9.95;100.00
76687;BME280;65615;47.378;19.344;2023-04-25T07:09:22;99141.00;;;10.01;100.00
76687;BME280;65615;47.378;19.344;2023-04-25T07:13:26;99139.47;;;10.36;100.00
76687;BME280;65615;47.378;19.344;2023-04-25T07:17:30;99134.91;;;10.45;100.00
76687;BME280;65615;47.378;19.344;2023-04-25T07:21:33;99129.94;;;10.71;100.00
76687;BME280;65615;47.378;19.344;2023-04-25T07:25:36;99133.41;;;10.86;100.00
76687;BME280;65615;47.378;19.344;2023-04-25T07:29:40;99136.78;;;11.01;100.00
76687;BME280;65615;47.378;19.344;2023-04-25T07:33:47;99136.88;;;11.07;100.00
76687;BME280;65615;47.378;19.344;2023-04-25T07:38:15;99131.78;;;11.27;100.00
76687;BME280;65615;47.378;19.344;2023-04-25T07:42:24;99135.53;;;11.39;100.00
76687;BME280;65615;47.378;19.344;2023-04-25T07:46:39;99146.72;;;11.62;100.00
76687;BME280;65615;47.378;19.344;2023-04-25T07:50:47;99144.50;;;11.87;100.00
76687;BME280;65615;47.378;19.344;2023-04-25T07:54:51;99135.94;;;11.85;100.00
76687;BME280;65615;47.378;19.344;2023-04-25T07:58:57;99134.63;;;12.30;100.00
76687;BME280;65615;47.378;19.344;2023-04-25T08:03:01;99137.09;;;12.38;100.00
76687;BME280;65615;47.378;19.344;2023-04-25T08:07:04;99141.38;;;12.93;100.00
76687;BME280;65615;47.378;19.344;2023-04-25T08:11:09;99143.84;;;13.01;100.00
76687;BME280;65615;47.378;19.344;2023-04-25T08:15:13;99145.56;;;13.08;100.00
76687;BME280;65615;47.378;19.344;2023-04-25T08:19:17;99145.56;;;13.21;100.00
76687;BME280;65615;47.378;19.344;2023-04-25T08:23:20;99134.19;;;13.34;97.87
76687;BME280;65615;47.378;19.344;2023-04-25T08:27:24;99143.94;;;13.14;100.00
76687;BME280;65615;47.378;19.344;2023-04-25T08:31:28;99147.44;;;13.47;99.04
76687;BME280;65615;47.378;19.344;2023-04-25T08:35:31;99146.00;;;14.10;97.10
76687;BME280;65615;47.378;19.344;2023-04-25T08:39:59;99146.84;;;13.78;99.60
76687;BME280;65615;47.378;19.344;2023-04-25T08:44:25;99146.38;;;14.39;92.21
76687;BME280;65615;47.378;19.344;2023-04-25T08:48:32;99141.94;;;15.15;90.84
76687;BME280;65615;47.378;19.344;2023-04-25T08:52:44;99140.34;;;14.77;91.74
76687;BME280;65615;47.378;19.344;2023-04-25T08:56:54;99140.59;;;15.06;86.99
76687;BME280;65615;47.378;19.344;2023-04-25T09:01:03;99152.88;;;15.39;86.69
76687;BME280;65615;47.378;19.344;2023-04-25T09:05:13;99151.81;;;15.46;81.06
76687;BME280;65615;47.378;19.344;2023-04-25T09:09:29;99141.28;;;15.58;85.75
76687;BME280;65615;47.378;19.344;2023-04-25T09:13:35;99143.34;;;15.56;79.53
76687;BME280;65615;47.378;19.344;2023-04-25T09:17:41;99153.34;;;15.29;79.63
76687;BME280;65615;47.378;19.344;2023-04-25T09:21:55;99154.25;;;15.48;80.12
76687;BME280;65615;47.378;19.344;2023-04-25T09:26:03;99143.88;;;15.02;78.41
76687;BME280;65615;47.378;19.344;2023-04-25T09:30:10;99146.06;;;15.11;80.54
76687;BME280;65615;47.378;19.344;2023-04-25T09:34:15;99149.25;;;15.89;77.49
76687;BME280;65615;47.378;19.344;2023-04-25T09:38:24;99150.13;;;15.83;77.75
76687;BME280;65615;47.378;19.344;2023-04-25T09:42:31;99161.44;;;15.47;82.39
76687;BME280;65615;47.378;19.344;2023-04-25T09:46:57;99148.47;;;15.82;76.60
76687;BME280;65615;47.378;19.344;2023-04-25T09:51:13;99149.06;;;15.59;72.63
76687;BME280;65615;47.378;19.344;2023-04-25T09:55:39;99154.28;;;15.10;74.35
76687;BME280;65615;47.378;19.344;2023-04-25T09:59:54;99151.44;;;16.59;71.92
76687;BME280;65615;47.378;19.344;2023-04-25T10:04:19;99142.22;;;15.94;71.10
76687;BME280;65615;47.378;19.344;2023-04-25T10:08:36;99139.34;;;15.47;74.39
76687;BME280;65615;47.378;19.344;2023-04-25T10:12:54;99134.56;;;16.41;70.64
76687;BME280;65615;47.378;19.344;2023-04-25T10:17:21;99136.09;;;16.73;70.52
76687;BME280;65615;47.378;19.344;2023-04-25T10:26:22;99133.91;;;16.27;69.09
76687;BME280;65615;47.378;19.344;2023-04-25T10:31:07;99135.53;;;16.46;70.27
76687;BME280;65615;47.378;19.344;2023-04-25T10:35:29;99130.31;;;15.97;69.25
76687;BME280;65615;47.378;19.344;2023-04-25T10:39:42;99132.28;;;15.59;75.18
76687;BME280;65615;47.378;19.344;2023-04-25T10:44:01;99132.81;;;15.43;72.37
76687;BME280;65615;47.378;19.344;2023-04-25T10:48:27;99136.69;;;15.09;73.96
76687;BME280;65615;47.378;19.344;2023-04-25T10:52:33;99143.91;;;14.95;77.10
76687;BME280;65615;47.378;19.344;2023-04-25T10:56:42;99143.34;;;14.87;76.28
76687;BME280;65615;47.378;19.344;2023-04-25T11:00:49;99152.34;;;14.86;75.31
76687;BME280;65615;47.378;19.344;2023-04-25T11:05:00;99159.81;;;14.51;75.44
76687;BME280;65615;47.378;19.344;2023-04-25T11:09:03;99165.19;;;14.38;77.71
76687;BME280;65615;47.378;19.344;2023-04-25T11:13:13;99170.06;;;14.41;77.74
76687;BME280;65615;47.378;19.344;2023-04-25T11:17:17;99172.22;;;14.77;76.97
76687;BME280;65615;47.378;19.344;2023-04-25T11:21:21;99164.09;;;15.09;74.45
76687;BME280;65615;47.378;19.344;2023-04-25T11:25:29;99169.63;;;15.46;74.44
76687;BME280;65615;47.378;19.344;2023-04-25T11:29:34;99174.09;;;15.83;73.64
76687;BME280;65615;47.378;19.344;2023-04-25T11:33:38;99181.06;;;16.51;70.95
76687;BME280;65615;47.378;19.344;2023-04-25T11:37:45;99183.78;;;16.20;68.90
76687;BME280;65615;47.378;19.344;2023-04-25T11:41:49;99183.19;;;16.18;71.24
76687;BME280;65615;47.378;19.344;2023-04-25T11:45:53;99178.53;;;16.56;63.84
76687;BME280;65615;47.378;19.344;2023-04-25T11:50:01;99195.94;;;16.34;66.70
76687;BME280;65615;47.378;19.344;2023-04-25T11:54:05;99184.72;;;16.07;66.67
76687;BME280;65615;47.378;19.344;2023-04-25T11:58:11;99186.37;;;15.53;68.75
76687;BME280;65615;47.378;19.344;2023-04-25T12:02:28;99194.31;;;15.59;65.90
76687;BME280;65615;47.378;19.344;2023-04-25T12:06:49;99203.69;;;17.15;61.86
76687;BME280;65615;47.378;19.344;2023-04-25T12:11:04;99207.84;;;17.11;59.64
76687;BME280;65615;47.378;19.344;2023-04-25T12:15:24;99198.09;;;16.68;61.05
76687;BME280;65615;47.378;19.344;2023-04-25T12:19:33;99200.09;;;16.30;62.94
76687;BME280;65615;47.378;19.344;2023-04-25T12:23:38;99211.44;;;16.01;63.89
76687;BME280;65615;47.378;19.344;2023-04-25T12:27:41;99213.59;;;15.86;61.37
76687;BME280;65615;47.378;19.344;2023-04-25T12:31:44;99209.84;;;16.18;61.79
76687;BME280;65615;47.378;19.344;2023-04-25T12:35:48;99215.56;;;15.97;64.90
76687;BME280;65615;47.378;19.344;2023-04-25T12:39:52;99216.63;;;15.65;60.67
76687;BME280;65615;47.378;19.344;2023-04-25T12:43:55;99207.81;;;15.26;61.97
76687;BME280;65615;47.378;19.344;2023-04-25T12:47:58;99204.84;;;15.48;62.74
76687;BME280;65615;47.378;19.344;2023-04-25T12:52:05;99208.34;;;16.47;62.44
76687;BME280;65615;47.378;19.344;2023-04-25T12:56:10;99192.81;;;17.28;58.07
76687;BME280;65615;47.378;19.344;2023-04-25T13:00:13;99196.31;;;17.99;58.32
76687;BME280;65615;47.378;19.344;2023-04-25T13:04:18;99199.91;;;17.52;56.34
76687;BME280;65615;47.378;19.344;2023-04-25T13:08:24;99191.34;;;19.40;50.52
76687;BME280;65615;47.378;19.344;2023-04-25T13:12:31;99182.38;;;20.46;47.85
76687;BME280;65615;47.378;19.344;2023-04-25T13:16:35;99183.19;;;19.96;46.04
76687;BME280;65615;47.378;19.344;2023-04-25T13:20:38;99178.03;;;20.23;44.58
76687;BME280;65615;47.378;19.344;2023-04-25T13:24:41;99180.09;;;20.97;42.77
76687;BME280;65615;47.378;19.344;2023-04-25T13:28:47;99172.28;;;20.53;45.18
76687;BME280;65615;47.378;19.344;2023-04-25T13:32:50;99164.00;;;20.97;42.47
76687;BME280;65615;47.378;19.344;2023-04-25T13:36:55;99165.34;;;19.85;48.32
76687;BME280;65615;47.378;19.344;2023-04-25T13:40:59;99172.81;;;18.24;49.17
76687;BME280;65615;47.378;19.344;2023-04-25T13:45:06;99174.22;;;18.61;49.70
76687;BME280;65615;47.378;19.344;2023-04-25T13:49:12;99172.16;;;19.76;46.54
76687;BME280;65615;47.378;19.344;2023-04-25T13:53:17;99170.19;;;20.98;44.39
76687;BME280;65615;47.378;19.344;2023-04-25T13:57:22;99165.44;;;21.05;43.87
76687;BME280;65615;47.378;19.344;2023-04-25T14:01:26;99161.44;;;20.86;38.80
76687;BME280;65615;47.378;19.344;2023-04-25T14:05:30;99159.81;;;21.28;40.68
76687;BME280;65615;47.378;19.344;2023-04-25T14:09:34;99155.66;;;21.42;37.92
76687;BME280;65615;47.378;19.344;2023-04-25T14:13:37;99155.56;;;20.46;38.04
76687;BME280;65615;47.378;19.344;2023-04-25T14:17:39;99153.28;;;20.38;38.77
76687;BME280;65615;47.378;19.344;2023-04-25T14:21:43;99155.53;;;21.05;37.65
76687;BME280;65615;47.378;19.344;2023-04-25T14:25:46;99157.16;;;21.33;37.72
76687;BME280;65615;47.378;19.344;2023-04-25T14:29:49;99163.13;;;21.13;38.31
76687;BME280;65615;47.378;19.344;2023-04-25T14:33:51;99151.53;;;21.35;36.30
76687;BME280;65615;47.378;19.344;2023-04-25T14:37:55;99154.69;;;20.62;37.38
76687;BME280;65615;47.378;19.344;2023-04-25T14:42:00;99141.63;;;19.94;38.13
76687;BME280;65615;47.378;19.344;2023-04-25T14:46:04;99153.13;;;20.11;40.09
76687;BME280;65615;47.378;19.344;2023-04-25T14:50:07;99149.63;;;18.88;41.29
76687;BME280;65615;47.378;19.344;2023-04-25T14:54:11;99149.59;;;18.13;42.96
76687;BME280;65615;47.378;19.344;2023-04-25T14:58:14;99148.19;;;17.99;42.04
76687;BME280;65615;47.378;19.344;2023-04-25T15:02:18;99144.50;;;19.14;41.03
76687;BME280;65615;47.378;19.344;2023-04-25T15:06:21;99146.78;;;17.02;45.38
76687;BME280;65615;47.378;19.344;2023-04-25T15:10:24;99162.84;;;18.31;42.95
76687;BME280;65615;47.378;19.344;2023-04-25T15:14:27;99148.63;;;19.05;42.73
76687;BME280;65615;47.378;19.344;2023-04-25T15:18:30;99156.19;;;18.34;42.97
76687;BME280;65615;47.378;19.344;2023-04-25T15:22:33;99150.25;;;17.33;41.65
